sensor_id;sensor_type;location;lat;lon;timestamp;P1;durP1;ratioP1;P2;durP2;ratioP2
8540;SDS011;4308;51.294;6.590;2023-04-26T00:01:58;6.67;;;3.73;;
8540;SDS011;4308;51.294;6.590;2023-04-26T00:04:25;6.97;;;3.43;;
8540;SDS011;4308;51.294;6.590;2023-04-26T00:06:53;10.40;;;3.60;;
8540;SDS011;4308;51.294;6.590;2023-04-26T00:09:20;7.90;;;4.20;;
8540;SDS011;4308;51.294;6.590;2023-04-26T00:11:48;8.30;;;4.07;;
8540;SDS011;4308;51.294;6.590;2023-04-26T00:14:16;10.33;;;4.20;;
8540;SDS011;4308;51.294;6.590;2023-04-26T00:16:43;9.40;;;4.00;;
8540;SDS011;4308;51.294;6.590;2023-04-26T00:19:11;8.03;;;3.83;;
8540;SDS011;4308;51.294;6.590;2023-04-26T00:21:39;9.97;;;3.77;;
8540;SDS011;4308;51.294;6.590;2023-04-26T00:24:06;7.87;;;4.10;;
8540;SDS011;4308;51.294;6.590;2023-04-26T00:26:34;8.63;;;3.97;;
8540;SDS011;4308;51.294;6.590;2023-04-26T00:29:05;11.53;;;4.20;;
8540;SDS011;4308;51.294;6.590;2023-04-26T00:31:32;5.43;;;3.97;;
8540;SDS011;4308;51.294;6.590;2023-04-26T00:34:00;9.33;;;4.40;;
8540;SDS011;4308;51.294;6.590;2023-04-26T00:36:27;8.03;;;4.00;;
8540;SDS011;4308;51.294;6.590;2023-04-26T00:38:55;7.07;;;3.83;;
8540;SDS011;4308;51.294;6.590;2023-04-26T00:41:22;6.73;;;3.93;;
8540;SDS011;4308;51.294;6.590;2023-04-26T00:43:50;7.60;;;3.60;;
8540;SDS011;4308;51.294;6.590;2023-04-26T00:46:18;13.87;;;4.87;;
8540;SDS011;4308;51.294;6.590;2023-04-26T00:48:46;10.20;;;3.80;;
8540;SDS011;4308;51.294;6.590;2023-04-26T00:51:14;7.13;;;4.10;;
8540;SDS011;4308;51.294;6.590;2023-04-26T00:53:41;6.17;;;3.27;;
8540;SDS011;4308;51.294;6.590;2023-04-26T00:56:09;9.37;;;4.50;;
8540;SDS011;4308;51.294;6.590;2023-04-26T00:58:37;7.37;;;4.37;;
8540;SDS011;4308;51.294;6.590;2023-04-26T01:01:04;6.60;;;4.00;;
8540;SDS011;4308;51.294;6.590;2023-04-26T01:03:32;11.47;;;4.07;;
8540;SDS011;4308;51.294;6.590;2023-04-26T01:06:00;7.37;;;4.00;;
8540;SDS011;4308;51.294;6.590;2023-04-26T01:08:28;8.57;;;4.37;;
8540;SDS011;4308;51.294;6.590;2023-04-26T01:10:55;9.40;;;4.40;;
8540;SDS011;4308;51.294;6.590;2023-04-26T01:13:23;10.03;;;5.80;;
8540;SDS011;4308;51.294;6.590;2023-04-26T01:15:51;8.77;;;4.40;;
8540;SDS011;4308;51.294;6.590;2023-04-26T01:18:19;8.50;;;4.70;;
8540;SDS011;4308;51.294;6.590;2023-04-26T01:20:47;10.13;;;5.13;;
8540;SDS011;4308;51.294;6.590;2023-04-26T01:23:14;9.80;;;4.83;;
8540;SDS011;4308;51.294;6.590;2023-04-26T01:25:42;9.43;;;4.43;;
8540;SDS011;4308;51.294;6.590;2023-04-26T01:28:10;10.83;;;4.67;;
8540;SDS011;4308;51.294;6.590;2023-04-26T01:30:37;9.17;;;4.70;;
8540;SDS011;4308;51.294;6.590;2023-04-26T01:33:05;10.33;;;4.77;;
8540;SDS011;4308;51.294;6.590;2023-04-26T01:35:32;9.93;;;5.27;;
8540;SDS011;4308;51.294;6.590;2023-04-26T01:38:03;11.80;;;5.33;;
8540;SDS011;4308;51.294;6.590;2023-04-26T01:40:30;8.70;;;4.67;;
8540;SDS011;4308;51.294;6.590;2023-04-26T01:42:58;6.33;;;4.90;;
8540;SDS011;4308;51.294;6.590;2023-04-26T01:45:26;7.87;;;5.53;;
8540;SDS011;4308;51.294;6.590;2023-04-26T01:47:53;11.33;;;4.83;;
8540;SDS011;4308;51.294;6.590;2023-04-26T01:50:21;10.57;;;5.33;;
8540;SDS011;4308;51.294;6.590;2023-04-26T01:52:51;11.33;;;5.20;;
8540;SDS011;4308;51.294;6.590;2023-04-26T01:55:18;9.17;;;5.13;;
8540;SDS011;4308;51.294;6.590;2023-04-26T01:57:46;10.10;;;5.60;;
8540;SDS011;4308;51.294;6.590;2023-04-26T02:00:14;9.13;;;5.20;;
8540;SDS011;4308;51.294;6.590;2023-04-26T02:02:41;10.70;;;4.90;;
8540;SDS011;4308;51.294;6.590;2023-04-26T02:05:09;14.50;;;6.43;;
8540;SDS011;4308;51.294;6.590;2023-04-26T02:07:37;10.90;;;5.13;;
8540;SDS011;4308;51.294;6.590;2023-04-26T02:10:05;11.87;;;5.37;;
8540;SDS011;4308;51.294;6.590;2023-04-26T02:12:32;16.33;;;6.37;;
8540;SDS011;4308;51.294;6.590;2023-04-26T02:15:00;11.77;;;5.77;;
8540;SDS011;4308;51.294;6.590;2023-04-26T02:17:28;10.30;;;5.77;;
8540;SDS011;4308;51.294;6.590;2023-04-26T02:19:55;11.00;;;5.67;;
8540;SDS011;4308;51.294;6.590;2023-04-26T02:22:23;15.07;;;6.13;;
8540;SDS011;4308;51.294;6.590;2023-04-26T02:24:51;9.87;;;6.23;;
8540;SDS011;4308;51.294;6.590;2023-04-26T02:27:18;13.93;;;6.67;;
8540;SDS011;4308;51.294;6.590;2023-04-26T02:29:46;12.87;;;6.33;;
8540;SDS011;4308;51.294;6.590;2023-04-26T02:32:14;12.67;;;5.97;;
8540;SDS011;4308;51.294;6.590;2023-04-26T02:34:41;11.23;;;6.10;;
8540;SDS011;4308;51.294;6.590;2023-04-26T02:37:09;9.97;;;5.33;;
8540;SDS011;4308;51.294;6.590;2023-04-26T02:39:37;11.60;;;6.00;;
8540;SDS011;4308;51.294;6.590;2023-04-26T02:42:08;11.23;;;6.23;;
8540;SDS011;4308;51.294;6.590;2023-04-26T02:44:36;10.57;;;6.23;;
8540;SDS011;4308;51.294;6.590;2023-04-26T02:47:03;11.10;;;6.00;;
8540;SDS011;4308;51.294;6.590;2023-04-26T02:49:31;9.73;;;5.93;;
8540;SDS011;4308;51.294;6.590;2023-04-26T02:51:58;15.37;;;6.30;;
8540;SDS011;4308;51.294;6.590;2023-04-26T02:54:26;9.43;;;5.93;;
8540;SDS011;4308;51.294;6.590;2023-04-26T02:56:53;13.67;;;6.13;;
8540;SDS011;4308;51.294;6.590;2023-04-26T02:59:21;11.37;;;6.17;;
8540;SDS011;4308;51.294;6.590;2023-04-26T03:01:49;10.47;;;6.37;;
8540;SDS011;4308;51.294;6.590;2023-04-26T03:04:16;13.70;;;6.33;;
8540;SDS011;4308;51.294;6.590;2023-04-26T03:06:44;15.07;;;7.30;;
8540;SDS011;4308;51.294;6.590;2023-04-26T03:09:12;10.33;;;6.27;;
8540;SDS011;4308;51.294;6.590;2023-04-26T03:11:39;13.90;;;7.10;;
8540;SDS011;4308;51.294;6.590;2023-04-26T03:14:07;16.40;;;6.33;;
8540;SDS011;4308;51.294;6.590;2023-04-26T03:16:39;10.67;;;6.07;;
8540;SDS011;4308;51.294;6.590;2023-04-26T03:19:07;17.33;;;7.10;;
8540;SDS011;4308;51.294;6.590;2023-04-26T03:21:35;15.10;;;7.30;;
8540;SDS011;4308;51.294;6.590;2023-04-26T03:24:02;11.63;;;6.57;;
8540;SDS011;4308;51.294;6.590;2023-04-26T03:26:30;9.47;;;6.83;;
8540;SDS011;4308;51.294;6.590;2023-04-26T03:29:01;13.50;;;6.30;;
8540;SDS011;4308;51.294;6.590;2023-04-26T03:31:28;12.77;;;6.23;;
8540;SDS011;4308;51.294;6.590;2023-04-26T03:33:56;10.87;;;5.87;;
8540;SDS011;4308;51.294;6.590;2023-04-26T03:36:24;11.07;;;6.93;;
8540;SDS011;4308;51.294;6.590;2023-04-26T03:38:51;14.27;;;5.90;;
8540;SDS011;4308;51.294;6.590;2023-04-26T03:41:19;12.10;;;7.10;;
8540;SDS011;4308;51.294;6.590;2023-04-26T03:43:47;11.90;;;6.10;;
8540;SDS011;4308;51.294;6.590;2023-04-26T03:46:14;13.90;;;6.50;;
8540;SDS011;4308;51.294;6.590;2023-04-26T03:48:42;12.80;;;5.83;;
8540;SDS011;4308;51.294;6.590;2023-04-26T03:51:10;11.67;;;6.27;;
8540;SDS011;4308;51.294;6.590;2023-04-26T03:53:37;11.93;;;6.90;;
8540;SDS011;4308;51.294;6.590;2023-04-26T03:56:05;12.37;;;6.70;;
8540;SDS011;4308;51.294;6.590;2023-04-26T03:58:33;16.03;;;6.70;;
8540;SDS011;4308;51.294;6.590;2023-04-26T04:01:00;11.80;;;7.10;;
8540;SDS011;4308;51.294;6.590;2023-04-26T04:03:28;16.13;;;7.03;;
8540;SDS011;4308;51.294;6.590;2023-04-26T04:05:56;12.53;;;7.17;;
8540;SDS011;4308;51.294;6.590;2023-04-26T04:08:23;14.97;;;6.77;;
8540;SDS011;4308;51.294;6.590;2023-04-26T04:10:51;14.87;;;7.23;;
8540;SDS011;4308;51.294;6.590;2023-04-26T04:13:19;14.33;;;6.67;;
8540;SDS011;4308;51.294;6.590;2023-04-26T04:15:46;12.37;;;7.33;;
8540;SDS011;4308;51.294;6.590;2023-04-26T04:18:14;12.10;;;7.10;;
8540;SDS011;4308;51.294;6.590;2023-04-26T04:20:41;13.30;;;6.73;;
8540;SDS011;4308;51.294;6.590;2023-04-26T04:23:11;20.83;;;7.67;;
8540;SDS011;4308;51.294;6.590;2023-04-26T04:25:39;15.77;;;7.67;;
8540;SDS011;4308;51.294;6.590;2023-04-26T04:28:07;19.57;;;8.00;;
8540;SDS011;4308;51.294;6.590;2023-04-26T04:30:34;14.73;;;8.00;;
8540;SDS011;4308;51.294;6.590;2023-04-26T04:33:02;22.40;;;7.67;;
8540;SDS011;4308;51.294;6.590;2023-04-26T04:35:30;22.27;;;8.67;;
8540;SDS011;4308;51.294;6.590;2023-04-26T04:37:57;14.60;;;7.63;;
8540;SDS011;4308;51.294;6.590;2023-04-26T04:40:27;14.10;;;7.60;;
8540;SDS011;4308;51.294;6.590;2023-04-26T04:42:54;15.20;;;8.73;;
8540;SDS011;4308;51.294;6.590;2023-04-26T04:45:22;22.30;;;8.87;;
8540;SDS011;4308;51.294;6.590;2023-04-26T04:47:49;15.87;;;8.37;;
8540;SDS011;4308;51.294;6.590;2023-04-26T04:50:17;13.77;;;8.17;;
8540;SDS011;4308;51.294;6.590;2023-04-26T04:52:45;16.37;;;8.40;;
8540;SDS011;4308;51.294;6.590;2023-04-26T04:55:13;17.20;;;9.40;;
8540;SDS011;4308;51.294;6.590;2023-04-26T04:57:40;15.63;;;8.20;;
8540;SDS011;4308;51.294;6.590;2023-04-26T05:00:09;16.07;;;8.30;;
8540;SDS011;4308;51.294;6.590;2023-04-26T05:02:36;15.27;;;8.17;;
8540;SDS011;4308;51.294;6.590;2023-04-26T05:05:04;16.17;;;8.13;;
8540;SDS011;4308;51.294;6.590;2023-04-26T05:07:32;12.40;;;7.30;;
8540;SDS011;4308;51.294;6.590;2023-04-26T05:10:00;14.73;;;7.03;;
8540;SDS011;4308;51.294;6.590;2023-04-26T05:12:28;13.47;;;7.83;;
8540;SDS011;4308;51.294;6.590;2023-04-26T05:14:55;16.17;;;6.77;;
8540;SDS011;4308;51.294;6.590;2023-04-26T05:17:23;17.47;;;7.20;;
8540;SDS011;4308;51.294;6.590;2023-04-26T05:19:50;14.70;;;7.78;;
8540;SDS011;4308;51.294;6.590;2023-04-26T05:22:18;12.50;;;6.63;;
8540;SDS011;4308;51.294;6.590;2023-04-26T05:24:46;12.97;;;7.80;;
8540;SDS011;4308;51.294;6.590;2023-04-26T05:27:14;12.23;;;7.40;;
8540;SDS011;4308;51.294;6.590;2023-04-26T05:29:41;15.83;;;7.87;;
8540;SDS011;4308;51.294;6.590;2023-04-26T05:32:09;12.70;;;7.53;;
8540;SDS011;4308;51.294;6.590;2023-04-26T05:34:36;13.10;;;7.83;;
8540;SDS011;4308;51.294;6.590;2023-04-26T05:37:04;14.07;;;6.93;;
8540;SDS011;4308;51.294;6.590;2023-04-26T05:39:32;13.07;;;7.20;;
8540;SDS011;4308;51.294;6.590;2023-04-26T05:41:59;13.20;;;7.83;;
8540;SDS011;4308;51.294;6.590;2023-04-26T05:44:27;11.80;;;7.40;;
8540;SDS011;4308;51.294;6.590;2023-04-26T05:46:54;14.47;;;7.67;;
8540;SDS011;4308;51.294;6.590;2023-04-26T05:49:25;12.40;;;7.30;;
8540;SDS011;4308;51.294;6.590;2023-04-26T05:51:52;14.20;;;7.60;;
8540;SDS011;4308;51.294;6.590;2023-04-26T05:54:20;11.80;;;7.30;;
8540;SDS011;4308;51.294;6.590;2023-04-26T05:56:47;13.77;;;8.23;;
8540;SDS011;4308;51.294;6.590;2023-04-26T05:59:15;14.87;;;7.80;;
8540;SDS011;4308;51.294;6.590;2023-04-26T06:01:43;14.10;;;7.83;;
8540;SDS011;4308;51.294;6.590;2023-04-26T06:04:13;15.83;;;8.77;;
8540;SDS011;4308;51.294;6.590;2023-04-26T06:06:41;13.43;;;7.63;;
8540;SDS011;4308;51.294;6.590;2023-04-26T06:09:08;11.60;;;7.47;;
8540;SDS011;4308;51.294;6.590;2023-04-26T06:11:36;12.53;;;7.40;;
8540;SDS011;4308;51.294;6.590;2023-04-26T06:14:04;12.70;;;7.97;;
8540;SDS011;4308;51.294;6.590;2023-04-26T06:16:34;15.20;;;7.80;;
8540;SDS011;4308;51.294;6.590;2023-04-26T06:19:02;11.80;;;6.77;;
8540;SDS011;4308;51.294;6.590;2023-04-26T06:21:29;15.07;;;8.33;;
8540;SDS011;4308;51.294;6.590;2023-04-26T06:23:57;14.33;;;7.93;;
8540;SDS011;4308;51.294;6.590;2023-04-26T06:26:24;15.70;;;7.80;;
8540;SDS011;4308;51.294;6.590;2023-04-26T06:28:52;15.40;;;8.60;;
8540;SDS011;4308;51.294;6.590;2023-04-26T06:31:20;16.93;;;9.03;;
8540;SDS011;4308;51.294;6.590;2023-04-26T06:33:47;17.83;;;7.87;;
8540;SDS011;4308;51.294;6.590;2023-04-26T06:36:15;16.43;;;8.73;;
8540;SDS011;4308;51.294;6.590;2023-04-26T06:38:43;14.30;;;7.80;;
8540;SDS011;4308;51.294;6.590;2023-04-26T06:41:10;19.27;;;7.97;;
8540;SDS011;4308;51.294;6.590;2023-04-26T06:43:38;15.50;;;8.13;;
8540;SDS011;4308;51.294;6.590;2023-04-26T06:46:06;12.60;;;7.27;;
8540;SDS011;4308;51.294;6.590;2023-04-26T06:48:33;16.13;;;8.17;;
8540;SDS011;4308;51.294;6.590;2023-04-26T06:51:05;17.83;;;8.53;;
8540;SDS011;4308;51.294;6.590;2023-04-26T06:53:35;13.07;;;7.50;;
8540;SDS011;4308;51.294;6.590;2023-04-26T06:56:03;12.70;;;7.60;;
8540;SDS011;4308;51.294;6.590;2023-04-26T06:58:31;13.23;;;7.63;;
8540;SDS011;4308;51.294;6.590;2023-04-26T07:00:58;14.53;;;7.57;;
8540;SDS011;4308;51.294;6.590;2023-04-26T07:03:26;15.27;;;7.43;;
8540;SDS011;4308;51.294;6.590;2023-04-26T07:05:54;13.80;;;7.27;;
8540;SDS011;4308;51.294;6.590;2023-04-26T07:08:21;16.33;;;8.03;;
8540;SDS011;4308;51.294;6.590;2023-04-26T07:10:49;19.87;;;7.33;;
8540;SDS011;4308;51.294;6.590;2023-04-26T07:13:17;17.67;;;7.43;;
8540;SDS011;4308;51.294;6.590;2023-04-26T07:15:45;15.00;;;7.60;;
8540;SDS011;4308;51.294;6.590;2023-04-26T07:18:12;14.73;;;7.97;;
8540;SDS011;4308;51.294;6.590;2023-04-26T07:20:40;14.57;;;6.87;;
8540;SDS011;4308;51.294;6.590;2023-04-26T07:23:08;14.77;;;7.90;;
8540;SDS011;4308;51.294;6.590;2023-04-26T07:25:35;14.50;;;7.10;;
8540;SDS011;4308;51.294;6.590;2023-04-26T07:28:03;16.37;;;6.77;;
8540;SDS011;4308;51.294;6.590;2023-04-26T07:30:30;14.83;;;7.00;;
8540;SDS011;4308;51.294;6.590;2023-04-26T07:32:58;17.07;;;7.40;;
8540;SDS011;4308;51.294;6.590;2023-04-26T07:35:26;15.40;;;7.33;;
8540;SDS011;4308;51.294;6.590;2023-04-26T07:37:54;9.83;;;6.90;;
8540;SDS011;4308;51.294;6.590;2023-04-26T07:40:22;13.63;;;6.93;;
8540;SDS011;4308;51.294;6.590;2023-04-26T07:42:51;11.90;;;5.53;;
8540;SDS011;4308;51.294;6.590;2023-04-26T07:45:19;9.43;;;4.90;;
8540;SDS011;4308;51.294;6.590;2023-04-26T07:47:47;6.13;;;4.13;;
8540;SDS011;4308;51.294;6.590;2023-04-26T07:50:15;5.70;;;3.37;;
8540;SDS011;4308;51.294;6.590;2023-04-26T07:52:42;14.53;;;4.67;;
8540;SDS011;4308;51.294;6.590;2023-04-26T07:55:10;7.67;;;4.23;;
8540;SDS011;4308;51.294;6.590;2023-04-26T07:57:37;10.73;;;4.30;;
8540;SDS011;4308;51.294;6.590;2023-04-26T08:00:05;13.03;;;4.60;;
8540;SDS011;4308;51.294;6.590;2023-04-26T08:02:33;9.57;;;4.17;;
8540;SDS011;4308;51.294;6.590;2023-04-26T08:05:11;9.90;;;3.70;;
8540;SDS011;4308;51.294;6.590;2023-04-26T08:07:39;7.17;;;3.73;;
8540;SDS011;4308;51.294;6.590;2023-04-26T08:10:07;10.10;;;3.57;;
8540;SDS011;4308;51.294;6.590;2023-04-26T08:12:35;10.03;;;3.47;;
8540;SDS011;4308;51.294;6.590;2023-04-26T08:15:04;7.00;;;3.10;;
8540;SDS011;4308;51.294;6.590;2023-04-26T08:17:31;11.23;;;4.47;;
8540;SDS011;4308;51.294;6.590;2023-04-26T08:19:59;7.70;;;3.70;;
8540;SDS011;4308;51.294;6.590;2023-04-26T08:22:27;6.40;;;3.40;;
8540;SDS011;4308;51.294;6.590;2023-04-26T08:24:54;5.40;;;2.47;;
8540;SDS011;4308;51.294;6.590;2023-04-26T08:27:22;13.60;;;3.70;;
8540;SDS011;4308;51.294;6.590;2023-04-26T08:29:49;7.37;;;3.17;;
8540;SDS011;4308;51.294;6.590;2023-04-26T08:32:17;11.37;;;3.77;;
8540;SDS011;4308;51.294;6.590;2023-04-26T08:34:45;7.80;;;3.07;;
8540;SDS011;4308;51.294;6.590;2023-04-26T08:37:12;5.70;;;2.77;;
8540;SDS011;4308;51.294;6.590;2023-04-26T08:39:40;7.43;;;3.03;;
8540;SDS011;4308;51.294;6.590;2023-04-26T08:42:12;8.17;;;3.60;;
8540;SDS011;4308;51.294;6.590;2023-04-26T08:44:40;8.33;;;2.80;;
8540;SDS011;4308;51.294;6.590;2023-04-26T08:49:45;8.53;;;3.60;;
8540;SDS011;4308;51.294;6.590;2023-04-26T08:52:13;6.87;;;3.07;;
8540;SDS011;4308;51.294;6.590;2023-04-26T08:54:41;7.73;;;3.20;;
8540;SDS011;4308;51.294;6.590;2023-04-26T08:57:09;6.80;;;2.90;;
8540;SDS011;4308;51.294;6.590;2023-04-26T08:59:38;7.60;;;3.10;;
8540;SDS011;4308;51.294;6.590;2023-04-26T09:02:06;8.30;;;3.33;;
8540;SDS011;4308;51.294;6.590;2023-04-26T09:04:34;6.43;;;2.80;;
8540;SDS011;4308;51.294;6.590;2023-04-26T09:07:02;8.80;;;3.07;;
8540;SDS011;4308;51.294;6.590;2023-04-26T09:09:32;8.03;;;2.73;;
8540;SDS011;4308;51.294;6.590;2023-04-26T09:12:01;6.53;;;2.43;;
8540;SDS011;4308;51.294;6.590;2023-04-26T09:14:28;4.37;;;2.67;;
8540;SDS011;4308;51.294;6.590;2023-04-26T09:16:56;6.40;;;2.43;;
8540;SDS011;4308;51.294;6.590;2023-04-26T09:19:36;7.70;;;2.57;;
8540;SDS011;4308;51.294;6.590;2023-04-26T09:22:05;11.43;;;3.00;;
8540;SDS011;4308;51.294;6.590;2023-04-26T09:24:45;10.83;;;2.97;;
8540;SDS011;4308;51.294;6.590;2023-04-26T09:27:13;8.57;;;2.43;;
8540;SDS011;4308;51.294;6.590;2023-04-26T09:29:52;6.10;;;2.87;;
8540;SDS011;4308;51.294;6.590;2023-04-26T09:32:23;5.67;;;2.43;;
8540;SDS011;4308;51.294;6.590;2023-04-26T09:34:51;6.97;;;3.27;;
8540;SDS011;4308;51.294;6.590;2023-04-26T09:37:18;5.77;;;3.20;;
8540;SDS011;4308;51.294;6.590;2023-04-26T09:39:46;7.43;;;2.80;;
8540;SDS011;4308;51.294;6.590;2023-04-26T09:42:15;5.33;;;2.33;;
8540;SDS011;4308;51.294;6.590;2023-04-26T09:44:43;7.33;;;2.50;;
8540;SDS011;4308;51.294;6.590;2023-04-26T09:47:11;4.97;;;2.30;;
8540;SDS011;4308;51.294;6.590;2023-04-26T09:49:49;4.20;;;2.53;;
8540;SDS011;4308;51.294;6.590;2023-04-26T09:52:17;9.20;;;3.00;;
8540;SDS011;4308;51.294;6.590;2023-04-26T09:54:49;8.50;;;3.00;;
8540;SDS011;4308;51.294;6.590;2023-04-26T09:57:18;8.63;;;2.80;;
8540;SDS011;4308;51.294;6.590;2023-04-26T09:59:52;5.97;;;2.37;;
8540;SDS011;4308;51.294;6.590;2023-04-26T10:02:22;4.43;;;2.27;;
8540;SDS011;4308;51.294;6.590;2023-04-26T10:04:50;6.93;;;2.57;;
8540;SDS011;4308;51.294;6.590;2023-04-26T10:07:20;6.77;;;2.60;;
8540;SDS011;4308;51.294;6.590;2023-04-26T10:09:48;6.43;;;2.20;;
8540;SDS011;4308;51.294;6.590;2023-04-26T10:12:17;4.17;;;1.97;;
8540;SDS011;4308;51.294;6.590;2023-04-26T10:14:45;4.27;;;2.37;;
8540;SDS011;4308;51.294;6.590;2023-04-26T10:17:15;7.20;;;2.30;;
8540;SDS011;4308;51.294;6.590;2023-04-26T10:19:45;5.67;;;2.20;;
8540;SDS011;4308;51.294;6.590;2023-04-26T10:22:24;5.67;;;2.80;;
8540;SDS011;4308;51.294;6.590;2023-04-26T10:24:53;5.33;;;2.67;;
8540;SDS011;4308;51.294;6.590;2023-04-26T10:30:08;4.37;;;2.73;;
8540;SDS011;4308;51.294;6.590;2023-04-26T10:35:19;6.83;;;2.83;;
8540;SDS011;4308;51.294;6.590;2023-04-26T10:40:28;4.80;;;2.03;;
8540;SDS011;4308;51.294;6.590;2023-04-26T10:45:36;4.33;;;2.53;;
8540;SDS011;4308;51.294;6.590;2023-04-26T10:53:28;4.67;;;2.27;;
8540;SDS011;4308;51.294;6.590;2023-04-26T10:55:55;3.87;;;1.83;;
8540;SDS011;4308;51.294;6.590;2023-04-26T10:58:24;5.93;;;2.40;;
8540;SDS011;4308;51.294;6.590;2023-04-26T11:04:21;5.23;;;2.67;;
8540;SDS011;4308;51.294;6.590;2023-04-26T11:09:37;9.13;;;2.67;;
8540;SDS011;4308;51.294;6.590;2023-04-26T11:12:06;11.63;;;2.43;;
8540;SDS011;4308;51.294;6.590;2023-04-26T11:14:37;7.50;;;2.40;;
8540;SDS011;4308;51.294;6.590;2023-04-26T11:17:05;4.93;;;1.87;;
8540;SDS011;4308;51.294;6.590;2023-04-26T11:19:32;4.97;;;2.30;;
8540;SDS011;4308;51.294;6.590;2023-04-26T11:22:00;3.97;;;1.93;;
8540;SDS011;4308;51.294;6.590;2023-04-26T11:24:29;4.70;;;1.93;;
8540;SDS011;4308;51.294;6.590;2023-04-26T11:26:57;6.80;;;2.17;;
8540;SDS011;4308;51.294;6.590;2023-04-26T11:29:24;7.30;;;2.50;;
8540;SDS011;4308;51.294;6.590;2023-04-26T11:31:53;6.33;;;2.00;;
8540;SDS011;4308;51.294;6.590;2023-04-26T11:36:54;7.03;;;2.20;;
8540;SDS011;4308;51.294;6.590;2023-04-26T11:39:22;9.17;;;2.23;;
8540;SDS011;4308;51.294;6.590;2023-04-26T11:41:50;4.53;;;2.30;;
8540;SDS011;4308;51.294;6.590;2023-04-26T11:44:18;5.33;;;2.27;;
8540;SDS011;4308;51.294;6.590;2023-04-26T11:46:48;5.23;;;2.30;;
8540;SDS011;4308;51.294;6.590;2023-04-26T11:49:16;5.13;;;2.40;;
8540;SDS011;4308;51.294;6.590;2023-04-26T11:51:45;4.00;;;2.23;;
8540;SDS011;4308;51.294;6.590;2023-04-26T11:54:27;8.67;;;2.53;;
8540;SDS011;4308;51.294;6.590;2023-04-26T11:56:55;4.73;;;2.30;;
8540;SDS011;4308;51.294;6.590;2023-04-26T11:59:26;4.57;;;2.23;;
8540;SDS011;4308;51.294;6.590;2023-04-26T12:01:54;8.43;;;2.30;;
8540;SDS011;4308;51.294;6.590;2023-04-26T12:04:25;10.50;;;2.70;;
8540;SDS011;4308;51.294;6.590;2023-04-26T12:06:56;7.90;;;2.60;;
8540;SDS011;4308;51.294;6.590;2023-04-26T12:09:28;4.17;;;2.30;;
8540;SDS011;4308;51.294;6.590;2023-04-26T12:11:56;4.80;;;2.37;;
8540;SDS011;4308;51.294;6.590;2023-04-26T12:17:01;5.87;;;2.40;;
8540;SDS011;4308;51.294;6.590;2023-04-26T12:19:35;7.17;;;2.30;;
8540;SDS011;4308;51.294;6.590;2023-04-26T12:22:04;4.67;;;2.37;;
8540;SDS011;4308;51.294;6.590;2023-04-26T12:24:32;8.60;;;2.50;;
8540;SDS011;4308;51.294;6.590;2023-04-26T12:27:01;4.87;;;2.50;;
8540;SDS011;4308;51.294;6.590;2023-04-26T12:29:29;7.43;;;2.40;;
8540;SDS011;4308;51.294;6.590;2023-04-26T12:31:57;5.20;;;2.53;;
8540;SDS011;4308;51.294;6.590;2023-04-26T12:34:25;5.07;;;2.10;;
8540;SDS011;4308;51.294;6.590;2023-04-26T12:36:53;4.60;;;2.47;;
8540;SDS011;4308;51.294;6.590;2023-04-26T12:39:20;6.83;;;2.60;;
8540;SDS011;4308;51.294;6.590;2023-04-26T12:41:48;6.00;;;2.30;;
8540;SDS011;4308;51.294;6.590;2023-04-26T12:44:18;8.20;;;2.90;;
8540;SDS011;4308;51.294;6.590;2023-04-26T12:46:48;4.20;;;2.27;;
8540;SDS011;4308;51.294;6.590;2023-04-26T12:49:16;3.60;;;2.10;;
8540;SDS011;4308;51.294;6.590;2023-04-26T12:51:43;11.47;;;2.80;;
8540;SDS011;4308;51.294;6.590;2023-04-26T12:54:11;4.57;;;2.40;;
8540;SDS011;4308;51.294;6.590;2023-04-26T12:56:39;3.47;;;2.20;;
8540;SDS011;4308;51.294;6.590;2023-04-26T12:59:06;9.77;;;2.63;;
8540;SDS011;4308;51.294;6.590;2023-04-26T13:01:34;5.13;;;2.37;;
8540;SDS011;4308;51.294;6.590;2023-04-26T13:04:01;7.23;;;2.80;;
8540;SDS011;4308;51.294;6.590;2023-04-26T13:06:29;5.83;;;2.47;;
8540;SDS011;4308;51.294;6.590;2023-04-26T13:08:57;5.13;;;2.90;;
8540;SDS011;4308;51.294;6.590;2023-04-26T13:11:24;5.10;;;2.57;;
8540;SDS011;4308;51.294;6.590;2023-04-26T13:13:52;8.63;;;2.70;;
8540;SDS011;4308;51.294;6.590;2023-04-26T13:16:20;6.30;;;3.00;;
8540;SDS011;4308;51.294;6.590;2023-04-26T13:18:47;6.40;;;2.60;;
8540;SDS011;4308;51.294;6.590;2023-04-26T13:21:15;6.37;;;2.43;;
8540;SDS011;4308;51.294;6.590;2023-04-26T13:23:43;5.37;;;2.73;;
8540;SDS011;4308;51.294;6.590;2023-04-26T13:26:10;8.03;;;2.60;;
8540;SDS011;4308;51.294;6.590;2023-04-26T13:28:38;3.67;;;2.90;;
8540;SDS011;4308;51.294;6.590;2023-04-26T13:31:05;7.33;;;2.70;;
8540;SDS011;4308;51.294;6.590;2023-04-26T13:33:33;4.77;;;2.57;;
8540;SDS011;4308;51.294;6.590;2023-04-26T13:36:03;6.93;;;3.03;;
8540;SDS011;4308;51.294;6.590;2023-04-26T13:38:30;4.07;;;2.77;;
8540;SDS011;4308;51.294;6.590;2023-04-26T13:40:58;7.17;;;2.60;;
8540;SDS011;4308;51.294;6.590;2023-04-26T13:43:26;4.83;;;2.80;;
8540;SDS011;4308;51.294;6.590;2023-04-26T13:45:53;5.37;;;2.90;;
8540;SDS011;4308;51.294;6.590;2023-04-26T13:48:21;7.87;;;2.67;;
8540;SDS011;4308;51.294;6.590;2023-04-26T13:50:49;4.67;;;3.07;;
8540;SDS011;4308;51.294;6.590;2023-04-26T13:53:16;4.67;;;2.93;;
8540;SDS011;4308;51.294;6.590;2023-04-26T13:55:44;5.07;;;2.37;;
8540;SDS011;4308;51.294;6.590;2023-04-26T13:58:12;5.90;;;2.70;;
8540;SDS011;4308;51.294;6.590;2023-04-26T14:00:40;5.40;;;2.83;;
8540;SDS011;4308;51.294;6.590;2023-04-26T14:03:07;5.23;;;2.77;;
8540;SDS011;4308;51.294;6.590;2023-04-26T14:05:35;4.53;;;2.67;;
8540;SDS011;4308;51.294;6.590;2023-04-26T14:08:03;4.13;;;2.30;;
8540;SDS011;4308;51.294;6.590;2023-04-26T14:10:31;7.03;;;3.00;;
8540;SDS011;4308;51.294;6.590;2023-04-26T14:12:58;3.13;;;2.63;;
8540;SDS011;4308;51.294;6.590;2023-04-26T14:15:26;3.60;;;2.43;;
8540;SDS011;4308;51.294;6.590;2023-04-26T14:17:54;6.63;;;3.27;;
8540;SDS011;4308;51.294;6.590;2023-04-26T14:20:21;6.63;;;3.07;;
8540;SDS011;4308;51.294;6.590;2023-04-26T14:22:49;4.50;;;2.60;;
8540;SDS011;4308;51.294;6.590;2023-04-26T14:25:16;3.63;;;2.60;;
8540;SDS011;4308;51.294;6.590;2023-04-26T14:27:44;4.70;;;2.83;;
8540;SDS011;4308;51.294;6.590;2023-04-26T14:30:12;5.50;;;2.47;;
8540;SDS011;4308;51.294;6.590;2023-04-26T14:32:40;6.20;;;2.77;;
8540;SDS011;4308;51.294;6.590;2023-04-26T14:35:08;4.77;;;2.83;;
8540;SDS011;4308;51.294;6.590;2023-04-26T14:37:35;5.53;;;3.03;;
8540;SDS011;4308;51.294;6.590;2023-04-26T14:40:03;4.00;;;2.67;;
8540;SDS011;4308;51.294;6.590;2023-04-26T14:42:31;7.53;;;3.10;;
8540;SDS011;4308;51.294;6.590;2023-04-26T14:44:59;9.33;;;3.10;;
8540;SDS011;4308;51.294;6.590;2023-04-26T14:47:26;5.30;;;3.07;;
8540;SDS011;4308;51.294;6.590;2023-04-26T14:49:55;6.53;;;3.37;;
8540;SDS011;4308;51.294;6.590;2023-04-26T14:52:23;7.53;;;3.50;;
8540;SDS011;4308;51.294;6.590;2023-04-26T14:54:51;6.73;;;3.00;;
8540;SDS011;4308;51.294;6.590;2023-04-26T14:57:18;5.37;;;3.30;;
8540;SDS011;4308;51.294;6.590;2023-04-26T14:59:46;10.73;;;3.30;;
8540;SDS011;4308;51.294;6.590;2023-04-26T15:02:13;7.30;;;3.33;;
8540;SDS011;4308;51.294;6.590;2023-04-26T15:04:41;4.83;;;2.87;;
8540;SDS011;4308;51.294;6.590;2023-04-26T15:07:09;7.43;;;3.30;;
8540;SDS011;4308;51.294;6.590;2023-04-26T15:09:50;5.70;;;3.00;;
8540;SDS011;4308;51.294;6.590;2023-04-26T15:12:17;4.57;;;2.90;;
8540;SDS011;4308;51.294;6.590;2023-04-26T15:14:45;7.03;;;3.10;;
8540;SDS011;4308;51.294;6.590;2023-04-26T15:17:13;7.17;;;3.23;;
8540;SDS011;4308;51.294;6.590;2023-04-26T15:19:40;6.93;;;3.23;;
8540;SDS011;4308;51.294;6.590;2023-04-26T15:22:08;6.50;;;3.43;;
8540;SDS011;4308;51.294;6.590;2023-04-26T15:24:36;6.23;;;3.17;;
8540;SDS011;4308;51.294;6.590;2023-04-26T15:27:03;7.47;;;3.20;;
8540;SDS011;4308;51.294;6.590;2023-04-26T15:29:34;4.97;;;2.97;;
8540;SDS011;4308;51.294;6.590;2023-04-26T15:32:02;4.03;;;3.13;;
8540;SDS011;4308;51.294;6.590;2023-04-26T15:34:30;3.30;;;2.73;;
8540;SDS011;4308;51.294;6.590;2023-04-26T15:37:04;9.13;;;3.43;;
8540;SDS011;4308;51.294;6.590;2023-04-26T15:39:32;4.43;;;3.10;;
8540;SDS011;4308;51.294;6.590;2023-04-26T15:41:59;8.53;;;3.20;;
8540;SDS011;4308;51.294;6.590;2023-04-26T15:44:27;4.10;;;2.87;;
8540;SDS011;4308;51.294;6.590;2023-04-26T15:46:54;9.53;;;2.80;;